createdAt,value
2019-04-11T00:00:33.256Z,12.93
2019-04-11T00:03:03.008Z,12.67
2019-04-11T00:05:31.764Z,13.87
2019-04-11T00:08:01.536Z,12.03
2019-04-11T00:10:31.271Z,12.57
2019-04-11T00:13:01.244Z,12.27
2019-04-11T00:15:30.719Z,12.63
2019-04-11T00:18:00.761Z,12.77
2019-04-11T00:20:29.430Z,12.63
2019-04-11T00:22:58.019Z,12.17
2019-04-11T00:25:27.474Z,12.53
2019-04-11T00:27:57.282Z,12.57
2019-04-11T00:30:26.268Z,12.50
2019-04-11T00:32:55.940Z,12.87
2019-04-11T00:35:25.913Z,11.83
2019-04-11T00:37:54.612Z,12.53
2019-04-11T00:40:23.173Z,12.27
2019-04-11T00:42:52.640Z,12.70
2019-04-11T00:45:21.357Z,12.63
2019-04-11T00:47:50.168Z,12.67
2019-04-11T00:50:19.084Z,12.47
2019-04-11T00:52:47.771Z,12.33
2019-04-11T00:55:17.523Z,12.50
2019-04-11T00:57:47.173Z,11.73
2019-04-11T01:00:16.553Z,11.83
2019-04-11T01:02:45.542Z,12.37
2019-04-11T01:05:15.129Z,11.93
2019-04-11T01:07:43.933Z,11.77
2019-04-11T01:10:12.399Z,11.37
2019-04-11T01:12:41.183Z,11.67
2019-04-11T01:15:11.723Z,11.70
2019-04-11T01:17:41.326Z,11.50
2019-04-11T01:20:11.239Z,12.63
2019-04-11T01:22:40.531Z,11.20
2019-04-11T01:25:10.498Z,11.00
2019-04-11T01:27:39.971Z,11.50
2019-04-11T01:30:13.749Z,11.50
2019-04-11T01:32:42.678Z,11.03
2019-04-11T01:35:11.209Z,11.37
2019-04-11T01:37:40.367Z,11.23
2019-04-11T01:40:09.905Z,11.60
2019-04-11T01:42:39.637Z,11.30
2019-04-11T01:45:09.563Z,11.57
2019-04-11T01:47:39.989Z,11.37
2019-04-11T01:50:08.721Z,10.70
2019-04-11T01:52:38.267Z,10.80
2019-04-11T01:55:08.133Z,10.37
2019-04-11T01:57:37.923Z,11.33
2019-04-11T02:00:09.741Z,11.10
2019-04-11T02:02:42.868Z,11.13
2019-04-11T02:05:32.708Z,10.47
2019-04-11T02:08:01.433Z,10.80
2019-04-11T02:10:30.020Z,11.07
2019-04-11T02:12:59.618Z,10.73
2019-04-11T02:15:28.560Z,10.23
2019-04-11T02:17:57.775Z,10.93
2019-04-11T02:20:27.157Z,11.03
2019-04-11T02:23:00.358Z,11.27
2019-04-11T02:25:46.966Z,10.37
2019-04-11T02:28:17.418Z,10.63
2019-04-11T02:30:51.297Z,10.67
2019-04-11T02:33:21.754Z,10.20
2019-04-11T02:35:51.876Z,10.60
2019-04-11T02:38:21.410Z,10.57
2019-04-11T02:40:52.483Z,10.60
2019-04-11T02:43:22.981Z,11.17
2019-04-11T02:46:04.485Z,9.83
2019-04-11T02:48:22.316Z,10.53
2019-04-11T02:50:51.101Z,10.70
2019-04-11T02:53:21.337Z,10.87
2019-04-11T02:55:52.155Z,11.00
2019-04-11T02:58:22.866Z,11.27
2019-04-11T03:00:53.654Z,11.47
2019-04-11T03:03:23.211Z,10.80
2019-04-11T03:05:53.273Z,11.40
2019-04-11T03:08:24.027Z,10.70
2019-04-11T03:10:53.547Z,11.07
2019-04-11T03:13:23.373Z,12.50
2019-04-11T03:16:05.359Z,9.87
2019-04-11T03:18:42.523Z,11.23
2019-04-11T03:21:00.172Z,11.50
2019-04-11T03:23:27.876Z,11.20
2019-04-11T03:25:56.689Z,11.73
2019-04-11T03:28:28.251Z,10.97
2019-04-11T03:31:30.414Z,10.50
2019-04-11T03:34:15.731Z,10.30
2019-04-11T03:36:50.938Z,11.23
2019-04-11T03:38:46.951Z,12.07
2019-04-11T03:41:16.109Z,12.20
2019-04-11T03:43:39.466Z,12.10
2019-04-11T03:46:19.987Z,12.03
2019-04-11T03:48:45.395Z,12.20
2019-04-11T03:51:01.921Z,11.77
2019-04-11T03:53:32.479Z,11.60
2019-04-11T03:56:03.217Z,16.57
2019-04-11T03:58:33.199Z,17.37
2019-04-11T04:01:05.449Z,14.77
2019-04-11T04:03:34.048Z,19.60
2019-04-11T04:06:04.428Z,17.27
2019-04-11T04:08:34.244Z,17.20
2019-04-11T04:11:23.152Z,13.80
2019-04-11T04:13:56.814Z,13.07
2019-04-11T04:16:40.779Z,12.27
2019-04-11T04:19:16.231Z,12.33
2019-04-11T04:21:53.242Z,12.90
2019-04-11T04:24:39.817Z,12.67
2019-04-11T04:27:07.637Z,12.60
2019-04-11T04:29:37.851Z,12.43
2019-04-11T04:32:08.235Z,13.23
2019-04-11T04:34:37.334Z,12.80
2019-04-11T04:37:07.746Z,13.23
2019-04-11T04:39:37.701Z,12.10
2019-04-11T04:42:17.164Z,13.70
2019-04-11T04:44:40.437Z,12.87
2019-04-11T04:47:19.326Z,12.63
2019-04-11T04:49:40.831Z,12.83
2019-04-11T04:52:11.838Z,12.40
2019-04-11T04:54:41.094Z,12.93
2019-04-11T04:57:12.858Z,12.00
2019-04-11T04:59:42.449Z,11.40
2019-04-11T05:02:12.641Z,11.70
2019-04-11T05:04:41.201Z,12.07
2019-04-11T05:07:11.357Z,14.47
2019-04-11T05:09:40.555Z,39.43
2019-04-11T05:12:09.907Z,22.67
2019-04-11T05:14:39.294Z,13.87
2019-04-11T05:17:08.772Z,12.47
2019-04-11T05:19:38.360Z,12.30
2019-04-11T05:22:08.471Z,12.43
2019-04-11T05:24:38.855Z,11.90
2019-04-11T05:27:08.341Z,11.60
2019-04-11T05:29:37.627Z,12.27
2019-04-11T05:32:07.251Z,12.07
2019-04-11T05:34:37.133Z,12.17
2019-04-11T05:37:06.814Z,11.83
2019-04-11T05:39:35.922Z,10.90
2019-04-11T05:42:05.064Z,11.60
2019-04-11T05:44:37.431Z,11.40
2019-04-11T05:47:06.720Z,10.37
2019-04-11T05:49:42.490Z,12.10
2019-04-11T05:52:12.367Z,11.93
2019-04-11T05:54:48.952Z,11.47
2019-04-11T05:57:20.825Z,11.23
2019-04-11T05:59:52.069Z,12.27
2019-04-11T06:02:19.318Z,10.47
2019-04-11T06:04:53.487Z,11.37
2019-04-11T06:07:41.596Z,11.33
2019-04-11T06:10:11.471Z,10.53
2019-04-11T06:12:56.861Z,10.57
2019-04-11T06:15:42.381Z,10.47
2019-04-11T06:18:22.842Z,11.23
2019-04-11T06:20:43.122Z,10.43
2019-04-11T06:23:13.425Z,10.00
2019-04-11T06:25:49.350Z,10.70
2019-04-11T06:28:22.459Z,12.23
2019-04-11T06:31:09.686Z,11.23
2019-04-11T06:33:40.704Z,10.53
2019-04-11T06:36:23.415Z,11.10
2019-04-11T06:38:54.677Z,10.50
2019-04-11T06:41:34.741Z,10.60
2019-04-11T06:44:05.400Z,10.90
2019-04-11T06:46:48.791Z,10.10
2019-04-11T06:49:18.993Z,11.10
2019-04-11T06:51:58.341Z,9.13
2019-04-11T06:54:37.783Z,10.70
2019-04-11T06:57:11.794Z,10.87
2019-04-11T06:59:44.898Z,9.37
2019-04-11T07:02:19.437Z,8.70
2019-04-11T07:04:49.639Z,9.00
2019-04-11T07:07:19.059Z,9.47
2019-04-11T07:09:53.341Z,10.03
2019-04-11T07:12:26.593Z,9.80
2019-04-11T07:15:02.618Z,9.33
2019-04-11T07:17:49.082Z,9.63
2019-04-11T07:20:35.749Z,9.67
2019-04-11T07:23:22.660Z,9.90
2019-04-11T07:25:53.914Z,8.60
2019-04-11T07:28:25.270Z,9.47
2019-04-11T07:31:07.571Z,8.67
2019-04-11T07:33:49.607Z,9.37
2019-04-11T07:36:36.107Z,7.63
2019-04-11T07:39:12.809Z,8.50
2019-04-11T07:41:45.456Z,7.93
2019-04-11T07:44:34.182Z,7.67
2019-04-11T07:47:26.026Z,6.47
2019-04-11T07:49:55.323Z,7.33
2019-04-11T07:52:25.648Z,7.13
2019-04-11T07:54:55.899Z,6.33
2019-04-11T07:57:31.996Z,7.47
2019-04-11T08:00:15.055Z,6.47
2019-04-11T08:02:55.228Z,6.70
2019-04-11T08:05:42.070Z,6.43
2019-04-11T08:08:13.364Z,7.17
2019-04-11T08:10:43.796Z,6.97
2019-04-11T08:13:20.670Z,5.60
2019-04-11T08:15:53.785Z,6.47
2019-04-11T08:18:41.129Z,6.77
2019-04-11T08:21:28.286Z,6.70
2019-04-11T08:24:07.849Z,5.80
2019-04-11T08:26:55.380Z,5.27
2019-04-11T08:29:24.408Z,5.83
2019-04-11T08:32:11.727Z,5.33
2019-04-11T08:34:47.974Z,5.73
2019-04-11T08:37:34.447Z,5.43
2019-04-11T08:40:05.784Z,5.87
2019-04-11T08:42:45.219Z,5.80
2019-04-11T08:45:17.550Z,5.63
2019-04-11T08:47:53.986Z,5.17
2019-04-11T08:50:20.664Z,5.57
2019-04-11T08:52:54.195Z,6.10
2019-04-11T08:55:24.492Z,5.90
2019-04-11T08:57:54.594Z,6.03
2019-04-11T09:00:28.251Z,6.00
2019-04-11T09:03:05.089Z,5.90
2019-04-11T09:05:38.757Z,4.50
2019-04-11T09:08:09.975Z,5.40
2019-04-11T09:10:56.386Z,4.70
2019-04-11T09:13:29.299Z,4.77
2019-04-11T09:16:05.556Z,4.60
2019-04-11T09:18:36.450Z,3.97
2019-04-11T09:21:07.825Z,4.33
2019-04-11T09:23:37.969Z,4.33
2019-04-11T09:26:11.836Z,4.03
2019-04-11T09:28:41.864Z,4.70
2019-04-11T09:31:29.383Z,4.90
2019-04-11T09:34:09.192Z,4.90
2019-04-11T09:36:49.302Z,3.97
2019-04-11T09:39:19.640Z,6.50
2019-04-11T09:42:07.184Z,5.87
2019-04-11T09:44:49.579Z,5.00
2019-04-11T09:47:22.291Z,4.93
2019-04-11T09:49:55.927Z,5.77
2019-04-11T09:52:33.202Z,5.33
2019-04-11T09:55:19.166Z,5.77
2019-04-11T09:57:50.403Z,5.17
2019-04-11T10:00:20.913Z,6.17
2019-04-11T10:02:52.720Z,4.73
2019-04-11T10:05:24.332Z,4.87
2019-04-11T10:08:11.146Z,5.00
2019-04-11T10:10:47.306Z,5.03
2019-04-11T10:13:18.643Z,5.60
2019-04-11T10:16:05.212Z,6.77
2019-04-11T10:18:38.712Z,5.63
2019-04-11T10:21:06.871Z,5.23
2019-04-11T10:23:40.955Z,8.57
2019-04-11T10:26:09.790Z,6.03
2019-04-11T10:28:55.896Z,6.40
2019-04-11T10:31:24.569Z,5.70
2019-04-11T10:34:11.277Z,6.50
2019-04-11T10:36:43.140Z,6.70
2019-04-11T10:39:15.290Z,5.57
2019-04-11T10:41:49.135Z,5.73
2019-04-11T10:44:19.739Z,4.77
2019-04-11T10:46:53.049Z,4.93
2019-04-11T10:49:26.487Z,5.73
2019-04-11T10:52:02.304Z,5.73
2019-04-11T10:54:32.559Z,5.00
2019-04-11T10:57:20.937Z,5.43
2019-04-11T10:59:51.140Z,5.83
2019-04-11T11:02:37.734Z,5.83
2019-04-11T11:05:07.358Z,5.13
2019-04-11T11:07:37.049Z,5.90
2019-04-11T11:10:11.178Z,6.40
2019-04-11T11:12:44.038Z,6.13
2019-04-11T11:15:17.688Z,6.47
2019-04-11T11:18:20.683Z,7.27
2019-04-11T11:20:33.647Z,6.60
2019-04-11T11:22:57.599Z,5.97
2019-04-11T11:25:30.977Z,6.70
2019-04-11T11:28:00.261Z,6.13
2019-04-11T11:30:47.739Z,6.23
2019-04-11T11:33:16.776Z,5.47
2019-04-11T11:35:50.346Z,7.03
2019-04-11T11:38:21.862Z,6.50
2019-04-11T11:40:58.423Z,5.80
2019-04-11T11:43:28.739Z,6.63
2019-04-11T11:46:16.061Z,5.93
2019-04-11T11:48:49.948Z,6.03
2019-04-11T11:51:35.253Z,5.90
2019-04-11T11:54:11.592Z,5.67
2019-04-11T11:56:42.406Z,6.13
2019-04-11T11:59:16.978Z,5.70
2019-04-11T12:01:50.941Z,5.87
2019-04-11T12:04:24.058Z,5.57
2019-04-11T12:06:59.922Z,6.63
2019-04-11T12:09:43.160Z,5.20
2019-04-11T12:12:13.573Z,5.63
2019-04-11T12:14:59.839Z,5.50
2019-04-11T12:17:46.933Z,5.20
2019-04-11T12:20:20.843Z,5.50
2019-04-11T12:22:51.026Z,5.40
2019-04-11T12:25:27.331Z,5.17
2019-04-11T12:27:58.288Z,5.33
2019-04-11T12:30:44.121Z,6.00
2019-04-11T12:33:14.600Z,4.90
2019-04-11T12:35:59.593Z,5.20
2019-04-11T12:38:35.688Z,4.83
2019-04-11T12:41:20.938Z,4.87
2019-04-11T12:44:06.298Z,5.03
2019-04-11T12:46:52.997Z,5.57
2019-04-11T12:49:23.139Z,5.23
2019-04-11T12:52:09.470Z,5.53
2019-04-11T12:54:55.982Z,5.10
2019-04-11T12:57:26.185Z,5.03
2019-04-11T13:00:05.723Z,6.50
2019-04-11T13:02:38.490Z,5.17
2019-04-11T13:05:09.380Z,5.57
2019-04-11T13:07:42.960Z,5.20
2019-04-11T13:10:13.288Z,4.70
2019-04-11T13:12:52.215Z,4.90
2019-04-11T13:15:22.432Z,5.10
2019-04-11T13:17:52.647Z,5.10
2019-04-11T13:20:28.925Z,5.13
2019-04-11T13:22:59.228Z,4.50
2019-04-11T13:25:45.641Z,4.80
2019-04-11T13:28:14.174Z,4.80
2019-04-11T13:30:44.303Z,4.73
2019-04-11T13:33:14.731Z,4.90
2019-04-11T13:35:45.005Z,4.90
2019-04-11T13:38:18.028Z,4.90
2019-04-11T13:40:48.228Z,5.17
2019-04-11T13:43:36.538Z,5.03
2019-04-11T13:46:22.790Z,4.93
2019-04-11T13:49:04.865Z,5.03
2019-04-11T13:51:35.135Z,5.43
2019-04-11T13:54:23.407Z,5.27
2019-04-11T13:57:11.797Z,5.00
2019-04-11T13:59:58.266Z,4.57
2019-04-11T14:02:34.160Z,4.90
2019-04-11T14:05:04.359Z,4.97
2019-04-11T14:07:34.517Z,5.03
2019-04-11T14:10:04.909Z,5.30
2019-04-11T14:12:34.108Z,5.10
2019-04-11T14:15:06.240Z,5.17
2019-04-11T14:17:48.308Z,4.80
2019-04-11T14:20:28.598Z,4.67
2019-04-11T14:22:53.302Z,4.93
2019-04-11T14:25:26.378Z,4.83
2019-04-11T14:28:08.506Z,5.00
2019-04-11T14:30:39.248Z,4.50
2019-04-11T14:33:08.027Z,4.63
2019-04-11T14:35:44.458Z,5.37
2019-04-11T14:38:14.646Z,5.23
2019-04-11T14:40:45.062Z,5.10
2019-04-11T14:43:21.216Z,4.80
2019-04-11T14:45:54.240Z,4.70
2019-04-11T14:48:42.818Z,5.07
2019-04-11T14:51:16.651Z,6.00
2019-04-11T14:54:03.715Z,5.87
2019-04-11T14:56:52.453Z,6.23
2019-04-11T14:59:25.177Z,5.87
2019-04-11T15:02:07.486Z,5.63
2019-04-11T15:04:46.200Z,4.83
2019-04-11T15:07:16.649Z,4.50
2019-04-11T15:09:47.305Z,4.70
2019-04-11T15:12:18.371Z,4.77
2019-04-11T15:15:04.876Z,4.57
2019-04-11T15:17:35.201Z,4.70
2019-04-11T15:20:05.477Z,5.70
2019-04-11T15:22:50.654Z,4.63
2019-04-11T15:25:23.329Z,4.63
2019-04-11T15:27:56.217Z,5.00
2019-04-11T15:30:43.475Z,4.33
2019-04-11T15:33:25.993Z,4.90
2019-04-11T15:35:58.051Z,4.40
2019-04-11T15:38:39.938Z,4.77
2019-04-11T15:41:09.204Z,6.60
2019-04-11T15:43:54.510Z,5.20
2019-04-11T15:46:24.667Z,4.30
2019-04-11T15:49:20.406Z,4.83
2019-04-11T15:51:42.973Z,4.63
2019-04-11T15:54:15.830Z,5.10
2019-04-11T15:56:49.400Z,5.17
2019-04-11T15:59:38.023Z,4.80
2019-04-11T16:02:11.489Z,4.93
2019-04-11T16:04:44.421Z,4.63
2019-04-11T16:07:14.579Z,4.60
2019-04-11T16:09:44.914Z,5.20
2019-04-11T16:12:21.209Z,4.37
2019-04-11T16:14:51.391Z,5.63
2019-04-11T16:17:37.702Z,4.73
2019-04-11T16:20:07.591Z,4.93
2019-04-11T16:22:55.021Z,4.93
2019-04-11T16:25:23.051Z,4.53
2019-04-11T16:27:56.338Z,5.93
2019-04-11T16:30:26.449Z,4.77
2019-04-11T16:33:08.369Z,4.80
2019-04-11T16:35:50.908Z,4.80
2019-04-11T16:38:33.102Z,5.10
2019-04-11T16:41:19.148Z,4.30
2019-04-11T16:43:58.417Z,4.67
2019-04-11T16:46:31.558Z,4.17
2019-04-11T16:49:00.167Z,4.50
2019-04-11T16:51:31.107Z,4.87
2019-04-11T16:53:58.970Z,4.07
2019-04-11T16:56:27.461Z,4.70
2019-04-11T16:58:56.205Z,4.73
2019-04-11T17:01:24.782Z,5.07
2019-04-11T17:03:55.187Z,4.57
2019-04-11T17:06:41.069Z,5.27
2019-04-11T17:09:17.042Z,5.30
2019-04-11T17:11:45.643Z,4.53
2019-04-11T17:14:14.256Z,4.63
2019-04-11T17:16:42.716Z,4.63
2019-04-11T17:19:11.833Z,4.70
2019-04-11T17:21:43.351Z,4.63
2019-04-11T17:24:10.518Z,4.90
2019-04-11T17:26:39.035Z,4.83
2019-04-11T17:29:07.739Z,4.97
2019-04-11T17:31:36.259Z,5.07
2019-04-11T17:34:05.730Z,4.87
2019-04-11T17:36:34.480Z,4.57
2019-04-11T17:39:06.748Z,5.10
2019-04-11T17:41:35.350Z,4.93
2019-04-11T17:44:03.930Z,5.00
2019-04-11T17:46:32.436Z,5.30
2019-04-11T17:49:00.971Z,5.30
2019-04-11T17:51:29.632Z,5.50
2019-04-11T17:53:58.155Z,4.80
2019-04-11T17:56:26.703Z,5.17
2019-04-11T17:58:57.648Z,4.30
2019-04-11T18:01:25.577Z,4.93
2019-04-11T18:03:54.238Z,4.87
2019-04-11T18:06:22.854Z,7.53
2019-04-11T18:08:52.124Z,7.90
2019-04-11T18:11:20.930Z,6.30
2019-04-11T18:13:49.638Z,7.90
2019-04-11T18:16:18.132Z,6.93
2019-04-11T18:18:46.621Z,6.70
2019-04-11T18:21:15.288Z,6.13
2019-04-11T18:23:43.833Z,5.83
2019-04-11T18:26:12.380Z,5.80
2019-04-11T18:28:40.889Z,6.03
2019-04-11T18:31:09.461Z,5.97
2019-04-11T18:33:38.151Z,6.60
2019-04-11T18:36:07.016Z,5.90
2019-04-11T18:38:35.649Z,6.27
2019-04-11T18:41:04.298Z,6.23
2019-04-11T18:43:32.927Z,5.83
2019-04-11T18:46:01.435Z,5.47
2019-04-11T18:48:30.104Z,5.97
2019-04-11T18:50:58.870Z,6.07
2019-04-11T18:53:27.361Z,6.27
2019-04-11T18:55:55.938Z,5.73
2019-04-11T18:58:24.680Z,6.20
2019-04-11T19:00:53.290Z,6.47
2019-04-11T19:03:21.922Z,6.53
2019-04-11T19:05:50.986Z,6.30
2019-04-11T19:08:19.632Z,5.50
2019-04-11T19:10:48.443Z,5.60
2019-04-11T19:13:17.597Z,5.80
2019-04-11T19:15:46.457Z,5.70
2019-04-11T19:18:16.598Z,5.83
2019-04-11T19:20:45.505Z,5.90
2019-04-11T19:23:14.308Z,6.43
2019-04-11T19:25:45.135Z,6.27
2019-04-11T19:28:13.214Z,6.20
2019-04-11T19:30:42.451Z,6.20
2019-04-11T19:33:11.068Z,6.10
2019-04-11T19:35:41.626Z,5.97
2019-04-11T19:38:12.370Z,6.80
2019-04-11T19:40:41.495Z,7.07
2019-04-11T19:43:10.045Z,6.70
2019-04-11T19:45:39.028Z,6.97
2019-04-11T19:48:07.849Z,7.03
2019-04-11T19:50:36.552Z,7.20
2019-04-11T19:53:05.162Z,7.20
2019-04-11T19:55:38.475Z,7.63
2019-04-11T19:58:07.047Z,7.17
2019-04-11T20:00:37.007Z,6.93
2019-04-11T20:03:05.569Z,7.20
2019-04-11T20:05:34.085Z,6.67
2019-04-11T20:08:02.836Z,6.63
2019-04-11T20:10:31.433Z,7.07
2019-04-11T20:13:01.918Z,6.97
2019-04-11T20:15:37.030Z,6.93
2019-04-11T20:18:02.125Z,7.40
2019-04-11T20:20:30.739Z,7.03
2019-04-11T20:22:59.608Z,7.23
2019-04-11T20:25:28.363Z,6.17
2019-04-11T20:27:57.487Z,6.33
2019-04-11T20:30:26.391Z,6.77
2019-04-11T20:32:55.040Z,6.70
2019-04-11T20:35:28.827Z,7.23
2019-04-11T20:37:54.320Z,7.37
2019-04-11T20:40:22.966Z,7.50
2019-04-11T20:42:54.125Z,7.10
2019-04-11T20:45:22.650Z,8.10
2019-04-11T20:47:51.189Z,7.90
2019-04-11T20:50:20.029Z,6.83
2019-04-11T20:52:48.617Z,6.73
2019-04-11T20:55:17.485Z,7.10
2019-04-11T20:57:45.953Z,6.90
2019-04-11T21:00:14.810Z,6.93
2019-04-11T21:02:43.310Z,6.80
2019-04-11T21:05:11.889Z,7.73
2019-04-11T21:07:40.478Z,6.40
2019-04-11T21:10:09.399Z,6.33
2019-04-11T21:12:38.083Z,6.23
2019-04-11T21:15:08.508Z,6.23
2019-04-11T21:17:37.103Z,5.90
2019-04-11T21:20:07.273Z,5.90
2019-04-11T21:22:35.759Z,5.23
2019-04-11T21:25:04.970Z,5.40
2019-04-11T21:27:33.461Z,6.70
2019-04-11T21:30:02.129Z,6.50
2019-04-11T21:32:31.880Z,6.50
2019-04-11T21:35:02.937Z,6.50
2019-04-11T21:37:31.588Z,6.33
2019-04-11T21:40:00.096Z,6.20
2019-04-11T21:42:28.857Z,5.83
2019-04-11T21:44:57.339Z,6.37
2019-04-11T21:47:25.989Z,6.33
2019-04-11T21:49:54.461Z,5.93
2019-04-11T21:52:22.962Z,6.30
2019-04-11T21:54:51.531Z,6.10
2019-04-11T21:57:20.095Z,5.90
2019-04-11T21:59:51.289Z,5.97
2019-04-11T22:02:19.098Z,6.17
2019-04-11T22:04:47.616Z,6.20
2019-04-11T22:07:16.116Z,6.17
2019-04-11T22:09:44.617Z,6.13
2019-04-11T22:12:13.158Z,5.97
2019-04-11T22:14:42.552Z,6.23
2019-04-11T22:17:14.950Z,5.60
2019-04-11T22:19:45.365Z,6.43
2019-04-11T22:22:11.796Z,6.40
2019-04-11T22:24:40.350Z,6.97
2019-04-11T22:27:08.839Z,5.80
2019-04-11T22:29:37.395Z,6.40
2019-04-11T22:32:05.945Z,6.13
2019-04-11T22:34:42.166Z,6.10
2019-04-11T22:37:10.691Z,6.23
2019-04-11T22:39:39.172Z,6.57
2019-04-11T22:42:07.864Z,6.67
2019-04-11T22:44:38.078Z,5.20
2019-04-11T22:47:08.029Z,5.53
2019-04-11T22:49:39.360Z,5.93
2019-04-11T22:52:07.537Z,5.90
2019-04-11T22:54:36.129Z,6.30
2019-04-11T22:57:04.654Z,5.93
2019-04-11T22:59:33.152Z,6.00
2019-04-11T23:02:03.473Z,6.00
2019-04-11T23:04:31.962Z,5.90
2019-04-11T23:07:00.454Z,6.90
2019-04-11T23:09:28.944Z,6.80
2019-04-11T23:11:57.903Z,6.83
2019-04-11T23:14:26.399Z,6.50
2019-04-11T23:16:54.939Z,6.77
2019-04-11T23:19:23.499Z,7.30
2019-04-11T23:21:52.217Z,6.53
2019-04-11T23:24:20.837Z,6.93
2019-04-11T23:26:49.378Z,6.77
2019-04-11T23:29:17.861Z,7.10
2019-04-11T23:31:46.403Z,7.13
2019-04-11T23:34:14.926Z,7.17
2019-04-11T23:36:43.478Z,6.33
2019-04-11T23:39:12.015Z,6.77
2019-04-11T23:41:40.673Z,6.73
2019-04-11T23:44:09.159Z,6.73
2019-04-11T23:46:37.734Z,6.60
2019-04-11T23:49:06.239Z,6.67
2019-04-11T23:51:34.781Z,6.93
2019-04-11T23:54:03.319Z,7.03
2019-04-11T23:56:31.929Z,6.50
2019-04-11T23:59:02.129Z,6.27
